Time;durP1;ratioP1;P1;durP2;ratioP2;P2;SDS_P1;SDS_P2;PMS_P1;PMS_P2;Temp;Humidity;BMP_temperature;BMP_pressure;BME280_temperature;BME280_humidity;BME280_pressure;Samples;Min_cycle;Max_cycle;Signal;HPM_P1;HPM_P2
2021/01/28 00:00:46;;;;;;;;;;;;;;;7.44;54.76;100433.75;5026113;28;99240;-81
2021/01/28 00:03:12;;;;;;;;;;;;;;;7.45;54.66;100425.81;5022753;28;98705;-81
2021/01/28 00:05:44;;;;;;;;;;;;;;;7.60;53.91;100422.78;5031251;28;96886;-82
2021/01/28 00:08:11;;;;;;;;;;;;;;;7.49;54.16;100423.97;5028225;28;101273;-82
2021/01/28 00:10:37;;;;;;;;;;;;;;;7.76;53.83;100420.53;5025882;28;99085;-82
2021/01/28 00:13:05;;;;;;;;;;;;;;;7.61;54.19;100413.13;5026835;28;98360;-82
2021/01/28 00:15:32;;;;;;;;;;;;;;;7.37;54.69;100413.78;5023285;28;96817;-81
2021/01/28 00:17:58;;;;;;;;;;;;;;;7.28;55.45;100401.78;5032205;27;100244;-81
2021/01/28 00:20:25;;;;;;;;;;;;;;;7.26;55.68;100395.69;5028742;28;99403;-81
2021/01/28 00:22:51;;;;;;;;;;;;;;;7.11;56.69;100393.47;5021429;28;97082;-80
2021/01/28 00:25:19;;;;;;;;;;;;;;;7.02;57.34;100386.69;5029962;28;97437;-81
2021/01/28 00:27:46;;;;;;;;;;;;;;;7.19;56.61;100378.38;5033102;28;101459;-81
2021/01/28 00:30:13;;;;;;;;;;;;;;;7.34;56.54;100370.06;5024880;28;98016;-80
2021/01/28 00:32:39;;;;;;;;;;;;;;;7.34;56.28;100369.19;5018288;28;96797;-79
2021/01/28 00:35:06;;;;;;;;;;;;;;;7.10;57.19;100375.97;5033014;28;97020;-79
2021/01/28 00:37:32;;;;;;;;;;;;;;;7.28;56.42;100372.88;5038821;28;99083;-79
2021/01/28 00:39:58;;;;;;;;;;;;;;;7.20;56.75;100367.81;5041352;28;98205;-79
2021/01/28 00:42:25;;;;;;;;;;;;;;;7.28;56.99;100369.38;5043189;27;97213;-78
2021/01/28 00:44:50;;;;;;;;;;;;;;;7.18;57.02;100371.38;5044565;28;96950;-79
2021/01/28 00:47:16;;;;;;;;;;;;;;;7.20;56.78;100378.34;5048511;28;97909;-79
2021/01/28 00:49:42;;;;;;;;;;;;;;;7.46;56.31;100374.97;5036586;28;99479;-80
2021/01/28 00:52:08;;;;;;;;;;;;;;;7.59;56.05;100363.19;5034358;28;97361;-79
2021/01/28 00:54:34;;;;;;;;;;;;;;;7.30;57.12;100365.78;5031619;27;96989;-80
2021/01/28 00:56:59;;;;;;;;;;;;;;;7.41;56.48;100363.72;5032349;28;102295;-80
2021/01/28 00:59:26;;;;;;;;;;;;;;;7.57;56.51;100359.75;5022614;28;98749;-80
2021/01/28 01:01:52;;;;;;;;;;;;;;;7.70;55.92;100354.13;5032439;28;96886;-80
2021/01/28 01:04:17;;;;;;;;;;;;;;;7.68;55.97;100351.53;5030346;27;97253;-80
2021/01/28 01:06:43;;;;;;;;;;;;;;;7.14;57.73;100354.84;5031383;27;98898;-80
2021/01/28 01:09:09;;;;;;;;;;;;;;;7.32;57.12;100356.09;5030692;28;98694;-79
2021/01/28 01:11:35;;;;;;;;;;;;;;;7.45;56.95;100344.31;5031660;28;96911;-81
2021/01/28 01:14:01;;;;;;;;;;;;;;;7.13;58.32;100339.13;5026622;27;98728;-79
2021/01/28 01:16:27;;;;;;;;;;;;;;;7.48;57.10;100346.84;5017973;27;97731;-79
2021/01/28 01:18:53;;;;;;;;;;;;;;;7.05;58.46;100343.72;5020887;28;99259;-79
2021/01/28 01:21:19;;;;;;;;;;;;;;;7.40;57.53;100329.59;5030367;27;96966;-79
2021/01/28 01:23:45;;;;;;;;;;;;;;;7.42;57.52;100333.03;5028417;27;96840;-79
2021/01/28 01:26:10;;;;;;;;;;;;;;;7.29;58.57;100326.41;5028639;28;101694;-79
2021/01/28 01:28:36;;;;;;;;;;;;;;;7.06;58.83;100314.78;5030518;28;99581;-80
2021/01/28 01:31:02;;;;;;;;;;;;;;;7.43;58.42;100304.06;5030912;28;98166;-79
2021/01/28 01:33:29;;;;;;;;;;;;;;;7.45;58.47;100294.38;5015487;27;97107;-79
2021/01/28 01:35:55;;;;;;;;;;;;;;;7.18;59.51;100296.03;5029392;27;102630;-79
2021/01/28 01:38:21;;;;;;;;;;;;;;;7.26;59.41;100298.47;5031310;28;98956;-80
2021/01/28 01:40:51;;;;;;;;;;;;;;;7.24;59.28;100295.00;5029426;27;97079;-79
2021/01/28 01:43:17;;;;;;;;;;;;;;;7.41;59.09;100291.91;5015385;28;96913;-79
2021/01/28 01:45:44;;;;;;;;;;;;;;;7.59;58.42;100286.94;5028493;28;101158;-80
2021/01/28 01:48:12;;;;;;;;;;;;;;;7.73;58.08;100269.88;5026782;28;99003;-80
2021/01/28 01:50:44;;;;;;;;;;;;;;;7.49;58.63;100267.06;5020138;28;97308;-80
2021/01/28 01:53:13;;;;;;;;;;;;;;;7.16;60.31;100273.34;5026665;28;97052;-79
2021/01/28 01:55:39;;;;;;;;;;;;;;;7.51;59.22;100265.28;5027720;28;97898;-79
2021/01/28 01:58:06;;;;;;;;;;;;;;;7.58;59.24;100279.09;5028655;27;100185;-79
2021/01/28 02:00:32;;;;;;;;;;;;;;;7.30;60.23;100270.31;5030896;28;97147;-79
2021/01/28 02:03:01;;;;;;;;;;;;;;;7.52;59.61;100267.00;5027226;28;97558;-79
2021/01/28 02:05:29;;;;;;;;;;;;;;;7.38;59.93;100274.44;5028483;28;99597;-79
2021/01/28 02:07:56;;;;;;;;;;;;;;;7.52;59.63;100274.88;5034290;28;101160;-79
2021/01/28 02:10:22;;;;;;;;;;;;;;;7.77;58.86;100280.25;5035600;27;96646;-80
2021/01/28 02:12:48;;;;;;;;;;;;;;;7.72;59.22;100268.16;5032557;27;97418;-79
2021/01/28 02:15:14;;;;;;;;;;;;;;;7.58;59.51;100261.56;5021755;28;98442;-80
2021/01/28 02:17:41;;;;;;;;;;;;;;;7.80;59.11;100264.38;5017757;28;100114;-80
2021/01/28 02:20:22;;;;;;;;;;;;;;;7.84;58.65;100263.34;5031868;28;96821;-80
2021/01/28 02:22:51;;;;;;;;;;;;;;;7.81;58.85;100263.44;5034002;28;96945;-80
2021/01/28 02:25:20;;;;;;;;;;;;;;;7.87;59.07;100257.16;5042756;27;97676;-80
2021/01/28 02:27:46;;;;;;;;;;;;;;;7.91;58.97;100264.03;5030474;28;99110;-80
2021/01/28 02:30:13;;;;;;;;;;;;;;;8.06;58.35;100257.41;5029443;28;97218;-79
2021/01/28 02:32:39;;;;;;;;;;;;;;;7.98;58.62;100250.63;5025760;28;96839;-80
2021/01/28 02:35:07;;;;;;;;;;;;;;;7.74;60.06;100250.56;5029718;27;97873;-79
2021/01/28 02:37:33;;;;;;;;;;;;;;;7.78;59.68;100249.53;5015565;28;99402;-80
2021/01/28 02:39:58;;;;;;;;;;;;;;;7.90;59.64;100241.25;5025910;28;96916;-80
2021/01/28 02:42:27;;;;;;;;;;;;;;;7.72;59.71;100236.59;5030460;27;98677;-80
2021/01/28 02:44:53;;;;;;;;;;;;;;;7.73;60.22;100243.56;5030456;28;99363;-79
2021/01/28 02:47:19;;;;;;;;;;;;;;;7.74;60.35;100240.03;5029691;27;100523;-80
2021/01/28 02:49:45;;;;;;;;;;;;;;;7.89;59.99;100244.78;5014206;28;98037;-79
2021/01/28 02:52:11;;;;;;;;;;;;;;;7.83;59.83;100239.72;5018385;28;96946;-79
2021/01/28 02:54:40;;;;;;;;;;;;;;;7.77;60.58;100234.66;5016110;28;99054;-80
2021/01/28 02:57:06;;;;;;;;;;;;;;;8.10;59.13;100237.97;5015762;27;98966;-80
2021/01/28 02:59:33;;;;;;;;;;;;;;;8.16;59.42;100220.19;5012973;28;98757;-79
2021/01/28 03:02:01;;;;;;;;;;;;;;;8.23;59.05;100218.22;5014691;28;97056;-80
2021/01/28 03:04:27;;;;;;;;;;;;;;;8.37;58.62;100226.53;5022836;28;98211;-80
2021/01/28 03:06:53;;;;;;;;;;;;;;;8.50;58.02;100221.69;5030601;28;99348;-80
2021/01/28 03:09:19;;;;;;;;;;;;;;;8.44;58.38;100217.53;5032003;28;97085;-80
2021/01/28 03:11:45;;;;;;;;;;;;;;;8.37;58.90;100214.25;5028937;27;96894;-80
2021/01/28 03:14:10;;;;;;;;;;;;;;;8.26;59.08;100216.34;5021265;28;98096;-80
2021/01/28 03:16:37;;;;;;;;;;;;;;;8.17;59.40;100208.75;5031641;28;99251;-81
2021/01/28 03:19:03;;;;;;;;;;;;;;;8.44;58.52;100207.00;5030493;28;96819;-79
2021/01/28 03:21:29;;;;;;;;;;;;;;;8.00;60.19;100206.72;5030241;28;97027;-80
2021/01/28 03:23:55;;;;;;;;;;;;;;;7.90;60.56;100202.66;5030182;28;97821;-79
2021/01/28 03:26:21;;;;;;;;;;;;;;;7.93;60.83;100201.72;5030131;28;100030;-80
2021/01/28 03:28:47;;;;;;;;;;;;;;;8.14;60.16;100200.97;5028759;28;98004;-80
2021/01/28 03:31:12;;;;;;;;;;;;;;;8.21;59.27;100205.09;5035195;28;96849;-79
2021/01/28 03:33:39;;;;;;;;;;;;;;;8.11;60.34;100197.59;5037216;28;100737;-80
2021/01/28 03:36:06;;;;;;;;;;;;;;;8.22;59.83;100201.56;5039654;28;98848;-80
2021/01/28 03:38:32;;;;;;;;;;;;;;;8.30;59.74;100190.78;5040731;28;96755;-81
2021/01/28 03:40:58;;;;;;;;;;;;;;;8.20;60.06;100189.38;5037379;27;97299;-79
2021/01/28 03:43:23;;;;;;;;;;;;;;;7.66;62.27;100185.06;5036710;28;97773;-78
2021/01/28 03:45:49;;;;;;;;;;;;;;;7.82;61.78;100170.47;5040903;28;98115;-79
2021/01/28 03:48:15;;;;;;;;;;;;;;;7.91;61.15;100170.19;5035719;27;96834;-81
2021/01/28 03:50:42;;;;;;;;;;;;;;;8.00;61.19;100169.88;5020911;28;96810;-80
2021/01/28 03:53:08;;;;;;;;;;;;;;;7.95;60.75;100171.78;5035474;28;99077;-80
2021/01/28 03:55:34;;;;;;;;;;;;;;;7.82;61.64;100159.09;5026545;28;98134;-79
2021/01/28 03:58:00;;;;;;;;;;;;;;;7.73;62.26;100162.91;5022211;28;96972;-80
2021/01/28 04:00:27;;;;;;;;;;;;;;;7.99;61.53;100159.41;5035323;28;96993;-82
2021/01/28 04:02:53;;;;;;;;;;;;;;;8.09;60.98;100160.78;5033949;28;97625;-81
2021/01/28 04:05:19;;;;;;;;;;;;;;;8.04;61.40;100153.97;5032704;28;98052;-80
2021/01/28 04:07:46;;;;;;;;;;;;;;;8.02;61.34;100144.34;5033498;28;96825;-80
2021/01/28 04:10:13;;;;;;;;;;;;;;;8.27;60.81;100151.41;5027583;27;96844;-80
2021/01/28 04:12:39;;;;;;;;;;;;;;;8.10;61.35;100149.34;5035025;28;100936;-80
2021/01/28 04:15:05;;;;;;;;;;;;;;;8.26;60.87;100149.69;5031694;28;97681;-79
2021/01/28 04:17:31;;;;;;;;;;;;;;;8.07;61.15;100143.34;5022537;28;98740;-80
2021/01/28 04:19:57;;;;;;;;;;;;;;;8.24;60.61;100148.88;5038049;28;96940;-79
2021/01/28 04:22:24;;;;;;;;;;;;;;;7.57;63.36;100145.91;5041737;28;99305;-79
2021/01/28 04:24:50;;;;;;;;;;;;;;;7.64;62.86;100144.78;5016987;28;99175;-79
2021/01/28 04:27:16;;;;;;;;;;;;;;;7.48;63.72;100144.41;5019215;28;96846;-80
2021/01/28 04:29:43;;;;;;;;;;;;;;;7.86;62.96;100135.28;5035331;28;96784;-80
2021/01/28 04:32:11;;;;;;;;;;;;;;;8.09;61.80;100136.25;5032035;28;98203;-79
2021/01/28 04:34:37;;;;;;;;;;;;;;;8.17;61.56;100142.97;5022188;28;102500;-80
2021/01/28 04:37:03;;;;;;;;;;;;;;;8.42;60.82;100139.50;5030817;28;96879;-79
2021/01/28 04:39:29;;;;;;;;;;;;;;;8.38;60.90;100138.75;5033600;27;99316;-80
2021/01/28 04:41:59;;;;;;;;;;;;;;;8.54;60.48;100125.88;5021370;28;98067;-80
2021/01/28 04:44:25;;;;;;;;;;;;;;;8.66;60.10;100120.19;5033196;28;100473;-80
2021/01/28 04:46:51;;;;;;;;;;;;;;;8.45;60.63;100127.09;5037102;28;97014;-80
2021/01/28 04:49:18;;;;;;;;;;;;;;;8.58;60.31;100124.84;5038005;28;96798;-79
2021/01/28 04:51:47;;;;;;;;;;;;;;;8.32;61.06;100129.31;5036819;28;100666;-79
2021/01/28 04:54:22;;;;;;;;;;;;;;;8.47;60.68;100127.03;5020512;28;98159;-79
2021/01/28 04:56:49;;;;;;;;;;;;;;;8.37;61.58;100127.38;5020292;28;97009;-79
2021/01/28 04:59:17;;;;;;;;;;;;;;;8.01;62.09;100126.84;5024418;28;97222;-80
2021/01/28 05:01:43;;;;;;;;;;;;;;;8.08;62.16;100116.97;5036797;28;99304;-80
2021/01/28 05:04:12;;;;;;;;;;;;;;;8.00;62.92;100117.25;5035861;28;100647;-81
2021/01/28 05:06:38;;;;;;;;;;;;;;;8.23;62.43;100113.81;5032332;28;96846;-81
2021/01/28 05:09:04;;;;;;;;;;;;;;;8.69;60.64;100115.63;5025316;28;96865;-81
2021/01/28 05:11:33;;;;;;;;;;;;;;;8.42;61.39;100116.66;5037587;28;98313;-81
2021/01/28 05:14:15;;;;;;;;;;;;;;;8.72;60.59;100118.16;5033054;28;98188;-81
2021/01/28 05:16:43;;;;;;;;;;;;;;;8.73;60.70;100108.47;5034006;28;97474;-82
2021/01/28 05:19:10;;;;;;;;;;;;;;;8.69;61.39;100109.50;5036409;28;97087;-81
2021/01/28 05:21:39;;;;;;;;;;;;;;;8.84;60.59;100094.91;5035163;28;101237;-81
2021/01/28 05:24:06;;;;;;;;;;;;;;;8.86;60.57;100093.06;5031962;27;98879;-81
2021/01/28 05:26:34;;;;;;;;;;;;;;;8.67;61.78;100092.88;5020112;28;97131;-81
2021/01/28 05:29:12;;;;;;;;;;;;;;;8.16;63.56;100082.50;5020150;28;96843;-81
2021/01/28 05:31:38;;;;;;;;;;;;;;;7.96;63.95;100091.09;5036115;27;98498;-82
2021/01/28 05:34:06;;;;;;;;;;;;;;;8.31;63.34;100090.72;5035622;28;98169;-79
2021/01/28 05:36:32;;;;;;;;;;;;;;;8.28;63.33;100098.69;5033129;28;96804;-80
2021/01/28 05:39:14;;;;;;;;;;;;;;;8.18;63.46;100093.81;5030119;27;97999;-79
2021/01/28 05:41:43;;;;;;;;;;;;;;;8.52;62.46;100099.63;5018283;28;98292;-79
2021/01/28 05:44:14;;;;;;;;;;;;;;;8.82;61.48;100097.59;5034800;27;105826;-80
2021/01/28 05:46:40;;;;;;;;;;;;;;;8.89;61.45;100095.56;5031477;27;97118;-79
2021/01/28 05:49:08;;;;;;;;;;;;;;;8.95;60.80;100093.56;5036457;28;96893;-79
2021/01/28 05:51:35;;;;;;;;;;;;;;;8.84;61.01;100098.41;5017732;28;96754;-78
2021/01/28 05:54:03;;;;;;;;;;;;;;;8.90;60.91;100090.25;5035889;28;98199;-82
2021/01/28 05:56:30;;;;;;;;;;;;;;;8.82;61.17;100092.31;5041077;28;96812;-81
2021/01/28 05:58:57;;;;;;;;;;;;;;;8.88;60.95;100081.53;5032954;28;98285;-80
2021/01/28 06:01:42;;;;;;;;;;;;;;;9.03;60.81;100083.59;5037805;28;98321;-80
2021/01/28 06:04:25;;;;;;;;;;;;;;;8.89;60.73;100085.03;5030267;28;98136;-79
2021/01/28 06:07:04;;;;;;;;;;;;;;;8.63;61.85;100089.53;5003632;28;97114;-81
2021/01/28 06:09:52;;;;;;;;;;;;;;;8.77;61.56;100076.69;5024613;28;96872;-83
2021/01/28 06:12:43;;;;;;;;;;;;;;;8.62;61.83;100082.53;5029764;28;98190;-80
2021/01/28 06:15:14;;;;;;;;;;;;;;;8.89;60.88;100079.75;5032237;28;96859;-81
2021/01/28 06:17:48;;;;;;;;;;;;;;;9.02;60.52;100081.00;5032069;28;96944;-80
2021/01/28 06:20:20;;;;;;;;;;;;;;;9.07;60.39;100087.78;5029202;28;96775;-80
2021/01/28 06:22:55;;;;;;;;;;;;;;;9.07;60.48;100086.94;5027842;28;99329;-80
2021/01/28 06:25:30;;;;;;;;;;;;;;;8.96;60.88;100094.41;5032769;28;100022;-81
2021/01/28 06:28:11;;;;;;;;;;;;;;;9.15;60.61;100093.63;5031718;28;96746;-82
2021/01/28 06:30:45;;;;;;;;;;;;;;;8.66;62.07;100085.94;5032948;28;96893;-81
2021/01/28 06:33:28;;;;;;;;;;;;;;;9.03;61.08;100086.22;5032950;28;101624;-81
2021/01/28 06:36:05;;;;;;;;;;;;;;;8.74;61.60;100089.09;5005157;28;99668;-80
2021/01/28 06:38:37;;;;;;;;;;;;;;;8.95;60.65;100090.91;5012681;28;96836;-82
2021/01/28 06:41:07;;;;;;;;;;;;;;;8.87;61.15;100095.63;5027648;28;96952;-80
2021/01/28 06:43:38;;;;;;;;;;;;;;;8.54;61.88;100092.50;5020608;28;101615;-81
2021/01/28 06:46:09;;;;;;;;;;;;;;;8.83;61.59;100091.41;5024913;28;98226;-80
2021/01/28 06:48:37;;;;;;;;;;;;;;;9.00;60.83;100091.59;5035848;28;96777;-80
2021/01/28 06:51:07;;;;;;;;;;;;;;;9.25;60.56;100095.91;5027040;28;96856;-80
2021/01/28 06:53:40;;;;;;;;;;;;;;;9.20;60.64;100096.06;5035457;28;98252;-80
2021/01/28 06:56:10;;;;;;;;;;;;;;;9.12;61.40;100100.81;5033489;28;99243;-81
2021/01/28 06:58:53;;;;;;;;;;;;;;;8.97;61.37;100104.91;5033366;28;96893;-80
2021/01/28 07:01:22;;;;;;;;;;;;;;;7.34;66.20;100109.88;5018624;28;98363;-81
2021/01/28 07:03:53;;;;;;;;;;;;;;;7.32;66.53;100111.66;5030600;27;99441;-80
2021/01/28 07:06:27;;;;;;;;;;;;;;;8.27;62.86;100112.75;5029556;28;100507;-81
2021/01/28 07:08:56;;;;;;;;;;;;;;;8.12;62.66;100113.34;5032395;28;97094;-79
2021/01/28 07:11:25;;;;;;;;;;;;;;;8.51;60.81;100123.38;5031667;28;97168;-80
2021/01/28 07:13:50;;;;;;;;;;;;;;;8.83;60.58;100109.84;5025255;28;97895;-80
2021/01/28 07:16:22;;;;;;;;;;;;;;;8.29;62.15;100110.94;5032083;28;97997;-79
2021/01/28 07:18:50;;;;;;;;;;;;;;;8.82;59.90;100113.38;5038915;27;96863;-81
2021/01/28 07:21:28;;;;;;;;;;;;;;;9.04;59.03;100102.88;5019271;28;97319;-80
2021/01/28 07:24:00;;;;;;;;;;;;;;;9.01;59.12;100103.00;5031826;27;99087;-81
2021/01/28 07:26:42;;;;;;;;;;;;;;;9.14;58.85;100098.97;5034808;28;100431;-79
2021/01/28 07:29:23;;;;;;;;;;;;;;;9.41;58.27;100097.84;5024774;28;96859;-79
2021/01/28 07:31:49;;;;;;;;;;;;;;;9.21;58.31;100095.16;5028975;27;97536;-81
2021/01/28 07:34:17;;;;;;;;;;;;;;;9.09;59.35;100088.59;5033411;28;99682;-78
2021/01/28 07:36:44;;;;;;;;;;;;;;;9.04;58.96;100093.22;5029152;27;99335;-80
2021/01/28 07:39:31;;;;;;;;;;;;;;;8.00;62.23;100093.59;5025623;28;96972;-80
2021/01/28 07:42:00;;;;;;;;;;;;;;;7.86;63.36;100089.72;5032742;27;96987;-81
2021/01/28 07:44:40;;;;;;;;;;;;;;;7.35;64.91;100089.69;5056022;27;101596;-80
2021/01/28 07:47:13;;;;;;;;;;;;;;;7.78;63.40;100102.25;5044163;27;96820;-81
2021/01/28 07:50:00;;;;;;;;;;;;;;;7.42;64.21;100105.19;5031445;27;96866;-81
2021/01/28 07:52:34;;;;;;;;;;;;;;;8.29;62.20;100103.06;5038539;27;97087;-79
2021/01/28 07:55:00;;;;;;;;;;;;;;;8.43;60.49;100106.97;5023867;27;99726;-80
2021/01/28 07:57:41;;;;;;;;;;;;;;;8.75;58.98;100104.88;5040060;27;101788;-80
2021/01/28 08:00:10;;;;;;;;;;;;;;;7.79;62.16;100090.84;5032529;27;97725;-81
2021/01/28 08:02:37;;;;;;;;;;;;;;;8.74;59.91;100097.88;5034500;27;96859;-80
2021/01/28 08:05:08;;;;;;;;;;;;;;;9.05;57.96;100097.56;5033332;27;99342;-80
2021/01/28 08:07:36;;;;;;;;;;;;;;;9.09;58.08;100085.97;5039173;27;99374;-79
2021/01/28 08:10:04;;;;;;;;;;;;;;;8.94;57.95;100091.84;5039856;27;97150;-80
2021/01/28 08:12:31;;;;;;;;;;;;;;;8.74;58.78;100089.09;5037867;27;97077;-79
2021/01/28 08:14:58;;;;;;;;;;;;;;;8.69;58.62;100093.69;5034130;27;98913;-81
2021/01/28 08:17:29;;;;;;;;;;;;;;;7.94;60.31;100090.31;5036690;27;99632;-81
2021/01/28 08:20:11;;;;;;;;;;;;;;;7.85;60.41;100091.47;5043300;27;96840;-82
2021/01/28 08:22:48;;;;;;;;;;;;;;;7.89;59.93;100093.06;5030007;27;97454;-78
2021/01/28 08:25:14;;;;;;;;;;;;;;;8.68;58.70;100090.22;5038731;27;101164;-80
2021/01/28 08:27:40;;;;;;;;;;;;;;;9.14;56.94;100086.63;5036564;27;99023;-82
2021/01/28 08:30:09;;;;;;;;;;;;;;;9.73;55.67;100085.94;5033370;27;97431;-80
2021/01/28 08:32:35;;;;;;;;;;;;;;;9.36;55.29;100083.13;5035031;27;96875;-80
2021/01/28 08:35:03;;;;;;;;;;;;;;;9.14;55.72;100089.28;5032903;27;101898;-79
2021/01/28 08:37:29;;;;;;;;;;;;;;;9.49;55.23;100090.50;5032242;27;99219;-83
2021/01/28 08:39:56;;;;;;;;;;;;;;;9.64;54.35;100082.88;5036955;27;97414;-80
2021/01/28 08:42:22;;;;;;;;;;;;;;;9.95;53.22;100088.53;5041949;27;97393;-80
2021/01/28 08:44:49;;;;;;;;;;;;;;;9.63;53.84;100082.00;5049824;27;100833;-80
2021/01/28 08:47:16;;;;;;;;;;;;;;;9.76;54.50;100085.84;5048844;27;98015;-81
2021/01/28 08:49:43;;;;;;;;;;;;;;;9.75;53.89;100081.47;5043885;27;97212;-79
2021/01/28 08:52:10;;;;;;;;;;;;;;;9.36;54.69;100083.13;5048511;27;97162;-80
2021/01/28 08:54:38;;;;;;;;;;;;;;;8.38;56.69;100081.69;5048563;27;99302;-80
2021/01/28 08:57:04;;;;;;;;;;;;;;;7.92;57.84;100092.97;5047670;27;98280;-82
2021/01/28 08:59:31;;;;;;;;;;;;;;;7.77;59.06;100101.41;5048987;27;97547;-79
2021/01/28 09:01:57;;;;;;;;;;;;;;;7.41;58.41;100094.75;5045190;27;97913;-79
2021/01/28 09:04:25;;;;;;;;;;;;;;;6.99;59.92;100099.59;5041231;27;99349;-79
2021/01/28 09:06:51;;;;;;;;;;;;;;;7.13;58.70;100094.78;5049717;27;99222;-79
2021/01/28 09:09:24;;;;;;;;;;;;;;;6.96;58.24;100089.16;5047423;27;97411;-79
2021/01/28 09:11:50;;;;;;;;;;;;;;;6.80;59.76;100097.53;5051514;27;97249;-81
2021/01/28 09:14:17;;;;;;;;;;;;;;;6.44;61.05;100105.63;5049476;27;99420;-80
2021/01/28 09:16:51;;;;;;;;;;;;;;;7.24;59.36;100092.66;5053194;27;101601;-81
2021/01/28 09:19:18;;;;;;;;;;;;;;;7.50;58.98;100095.28;5047220;27;96936;-78
2021/01/28 09:21:45;;;;;;;;;;;;;;;7.38;58.25;100100.97;5048036;27;96954;-79
2021/01/28 09:24:20;;;;;;;;;;;;;;;7.14;58.53;100099.13;5046913;27;99186;-79
2021/01/28 09:26:46;;;;;;;;;;;;;;;7.42;57.36;100099.06;5042882;27;99265;-80
2021/01/28 09:29:15;;;;;;;;;;;;;;;7.40;57.23;100100.91;5058040;27;97243;-80
2021/01/28 09:31:41;;;;;;;;;;;;;;;7.30;57.51;100096.84;5054185;27;96921;-79
2021/01/28 09:34:12;;;;;;;;;;;;;;;7.16;56.86;100106.03;5057696;27;99988;-80
2021/01/28 09:36:38;;;;;;;;;;;;;;;7.36;56.85;100100.13;5058210;27;98941;-81
2021/01/28 09:39:06;;;;;;;;;;;;;;;6.89;57.90;100101.66;5064020;27;96837;-82
2021/01/28 09:41:35;;;;;;;;;;;;;;;7.26;56.07;100096.09;5044918;27;97028;-80
2021/01/28 09:44:01;;;;;;;;;;;;;;;7.31;56.10;100086.28;5024029;28;99380;-81
2021/01/28 09:46:30;;;;;;;;;;;;;;;8.13;53.88;100080.84;5025365;27;99861;-80
2021/01/28 09:48:57;;;;;;;;;;;;;;;8.62;52.21;100085.19;5024049;27;96959;-79
2021/01/28 09:51:26;;;;;;;;;;;;;;;8.87;50.93;100077.19;5027717;27;98251;-81
2021/01/28 09:54:02;;;;;;;;;;;;;;;9.16;50.64;100079.53;5027516;28;97953;-81
2021/01/28 09:56:29;;;;;;;;;;;;;;;8.90;51.56;100074.44;5031446;27;98902;-79
2021/01/28 09:58:56;;;;;;;;;;;;;;;8.56;51.84;100069.59;5025559;27;98484;-80
2021/01/28 10:01:27;;;;;;;;;;;;;;;7.90;52.80;100065.00;5028335;27;97413;-81
2021/01/28 10:03:53;;;;;;;;;;;;;;;8.56;51.50;100069.59;5029915;27;98748;-82
2021/01/28 10:06:19;;;;;;;;;;;;;;;9.33;49.49;100060.38;5029528;27;102189;-81
2021/01/28 10:08:45;;;;;;;;;;;;;;;8.72;50.86;100065.50;5030424;28;98502;-80
2021/01/28 10:11:11;;;;;;;;;;;;;;;9.20;49.61;100057.41;5031003;27;96950;-80
2021/01/28 10:13:37;;;;;;;;;;;;;;;8.32;52.34;100060.88;5025933;28;99690;-82
2021/01/28 10:16:04;;;;;;;;;;;;;;;8.23;52.23;100055.91;5023606;28;98233;-81
2021/01/28 10:18:30;;;;;;;;;;;;;;;8.57;50.94;100060.81;5031756;27;98031;-79
2021/01/28 10:20:56;;;;;;;;;;;;;;;8.27;50.92;100056.66;5028664;27;97071;-81
2021/01/28 10:23:22;;;;;;;;;;;;;;;7.83;52.01;100055.59;5020594;27;99322;-82
2021/01/28 10:25:48;;;;;;;;;;;;;;;8.29;50.93;100060.94;5022681;27;101014;-80
2021/01/28 10:28:13;;;;;;;;;;;;;;;9.00;49.19;100046.78;5016673;27;96920;-82
2021/01/28 10:30:39;;;;;;;;;;;;;;;8.72;48.92;100035.66;5018060;28;97149;-81
2021/01/28 10:33:07;;;;;;;;;;;;;;;9.74;47.48;100034.91;5027980;27;102279;-81
2021/01/28 10:35:33;;;;;;;;;;;;;;;9.36;48.28;100030.41;5016320;27;99541;-81
2021/01/28 10:38:00;;;;;;;;;;;;;;;9.11;48.52;100034.06;5025331;27;96964;-81
2021/01/28 10:40:29;;;;;;;;;;;;;;;9.65;47.15;100031.81;5023127;27;96850;-79
2021/01/28 10:42:56;;;;;;;;;;;;;;;9.86;46.88;100031.72;5030130;27;99831;-79
2021/01/28 10:45:22;;;;;;;;;;;;;;;9.35;48.27;100026.91;5026337;28;98398;-79
2021/01/28 10:47:48;;;;;;;;;;;;;;;8.70;48.55;100022.53;5030271;27;96837;-81
2021/01/28 10:50:15;;;;;;;;;;;;;;;9.49;47.16;100031.59;5031213;27;97049;-80
2021/01/28 10:52:41;;;;;;;;;;;;;;;9.26;48.29;100031.69;5031742;27;99507;-81
2021/01/28 10:55:08;;;;;;;;;;;;;;;9.61;47.17;100017.91;5034157;28;99155;-79
2021/01/28 10:57:34;;;;;;;;;;;;;;;9.78;46.48;100011.91;5027929;27;98352;-79
2021/01/28 10:59:59;;;;;;;;;;;;;;;9.72;46.68;100007.72;5027657;28;97327;-80
2021/01/28 11:02:25;;;;;;;;;;;;;;;9.65;45.92;100003.63;5030628;27;99027;-79
2021/01/28 11:04:51;;;;;;;;;;;;;;;9.90;45.10;99991.09;5029185;27;100713;-81
2021/01/28 11:07:18;;;;;;;;;;;;;;;10.26;43.71;99991.25;5032728;28;98213;-80
2021/01/28 11:09:43;;;;;;;;;;;;;;;10.24;44.16;99981.69;5033055;28;97059;-79
2021/01/28 11:12:09;;;;;;;;;;;;;;;10.33;43.77;99968.03;5028193;28;101972;-79
2021/01/28 11:14:35;;;;;;;;;;;;;;;10.31;43.89;99975.16;5034171;28;99255;-79
2021/01/28 11:17:01;;;;;;;;;;;;;;;8.96;46.51;99971.44;5035454;28;96909;-79
2021/01/28 11:19:27;;;;;;;;;;;;;;;8.32;47.26;99970.50;5035888;28;98459;-78
2021/01/28 11:21:53;;;;;;;;;;;;;;;8.26;47.89;99971.56;5031928;28;98831;-77
2021/01/28 11:24:19;;;;;;;;;;;;;;;7.97;49.05;99964.75;5028564;28;99270;-78
2021/01/28 11:26:45;;;;;;;;;;;;;;;7.68;49.69;99978.09;5037938;27;96833;-80
2021/01/28 11:29:11;;;;;;;;;;;;;;;7.86;49.37;99977.47;5030648;28;97172;-78
2021/01/28 11:31:37;;;;;;;;;;;;;;;8.67;47.48;99977.88;5027478;28;98901;-79
2021/01/28 11:34:03;;;;;;;;;;;;;;;8.79;47.68;99971.28;5027396;28;98853;-78
2021/01/28 11:36:29;;;;;;;;;;;;;;;8.85;47.18;99970.16;5030160;28;97187;-80
2021/01/28 11:38:55;;;;;;;;;;;;;;;9.05;46.99;99957.88;5027245;27;98074;-80
2021/01/28 11:41:26;;;;;;;;;;;;;;;9.62;45.56;99948.41;5032704;27;98883;-81
2021/01/28 11:43:52;;;;;;;;;;;;;;;8.18;47.86;99955.22;5022502;27;99286;-79
2021/01/28 11:46:18;;;;;;;;;;;;;;;8.54;47.79;99949.44;5033643;28;96914;-80
2021/01/28 11:48:44;;;;;;;;;;;;;;;7.22;50.40;99958.69;5011106;28;96967;-80
2021/01/28 11:51:10;;;;;;;;;;;;;;;7.17;51.08;99951.88;5030526;28;98897;-80
2021/01/28 11:53:36;;;;;;;;;;;;;;;7.31;50.96;99954.88;5033920;27;98922;-80
2021/01/28 11:56:11;;;;;;;;;;;;;;;7.76;50.16;99957.66;5043041;27;96814;-80
2021/01/28 11:58:37;;;;;;;;;;;;;;;8.25;48.35;99959.31;5033597;28;96814;-80
2021/01/28 12:01:03;;;;;;;;;;;;;;;7.90;48.50;99957.16;5028741;28;98466;-80
2021/01/28 12:03:29;;;;;;;;;;;;;;;7.81;49.18;99960.13;5021372;28;99270;-80
2021/01/28 12:05:55;;;;;;;;;;;;;;;7.92;48.31;99957.97;5027394;28;96760;-78
2021/01/28 12:08:21;;;;;;;;;;;;;;;7.87;47.69;99954.66;5033527;28;97397;-80
2021/01/28 12:10:47;;;;;;;;;;;;;;;8.21;47.79;99951.59;5033379;27;98644;-81
2021/01/28 12:13:13;;;;;;;;;;;;;;;8.11;47.06;99951.09;5032432;28;97910;-80
2021/01/28 12:15:40;;;;;;;;;;;;;;;7.46;48.23;99951.75;5027954;28;96948;-80
2021/01/28 12:18:06;;;;;;;;;;;;;;;7.98;47.37;99955.09;5031669;28;97033;-81
2021/01/28 12:20:32;;;;;;;;;;;;;;;8.32;47.07;99955.56;5032589;28;98806;-80
2021/01/28 12:22:58;;;;;;;;;;;;;;;8.60;45.90;99951.88;5035043;28;98464;-79
2021/01/28 12:25:24;;;;;;;;;;;;;;;9.20;44.58;99946.69;5034429;28;96973;-78
2021/01/28 12:27:50;;;;;;;;;;;;;;;8.65;45.39;99950.75;5028977;28;98398;-78
2021/01/28 12:30:17;;;;;;;;;;;;;;;9.19;44.48;99936.19;5024568;28;98937;-79
2021/01/28 12:32:44;;;;;;;;;;;;;;;9.64;43.32;99937.78;5036191;28;101322;-78
2021/01/28 12:35:10;;;;;;;;;;;;;;;9.71;42.66;99932.16;5035996;28;97277;-79
2021/01/28 12:37:36;;;;;;;;;;;;;;;9.50;43.34;99930.47;5036726;28;96751;-78
2021/01/28 12:40:03;;;;;;;;;;;;;;;8.47;44.86;99930.41;5030190;28;99479;-79
2021/01/28 12:42:29;;;;;;;;;;;;;;;7.63;47.45;99937.13;5032326;28;99243;-80
2021/01/28 12:44:55;;;;;;;;;;;;;;;8.58;45.01;99925.59;5031230;28;96965;-79
2021/01/28 12:47:21;;;;;;;;;;;;;;;8.04;45.83;99912.78;5028500;28;96881;-79
2021/01/28 12:49:48;;;;;;;;;;;;;;;7.59;46.59;99912.72;5028091;27;99304;-79
2021/01/28 12:52:14;;;;;;;;;;;;;;;8.56;45.45;99901.06;5030331;28;97616;-80